createdAt,value
2022-09-26T00:01:46.147Z,16.38
2022-09-26T00:04:24.636Z,16.58
2022-09-26T00:06:58.201Z,17.02
2022-09-26T00:09:30.819Z,15.93
2022-09-26T00:12:01.999Z,16.15
2022-09-26T00:14:31.029Z,15.90
2022-09-26T00:17:00.677Z,15.18
2022-09-26T00:19:29.453Z,16.55
2022-09-26T00:21:57.833Z,15.50
2022-09-26T00:24:28.353Z,15.73
2022-09-26T00:26:56.999Z,16.35
2022-09-26T00:29:26.680Z,15.05
2022-09-26T00:31:55.140Z,16.73
2022-09-26T00:34:23.967Z,15.95
2022-09-26T00:36:53.710Z,15.73
2022-09-26T00:39:22.076Z,15.38
2022-09-26T00:41:50.728Z,16.23
2022-09-26T00:44:49.576Z,16.38
2022-09-26T00:47:43.467Z,16.00
2022-09-26T00:50:18.021Z,15.73
2022-09-26T00:52:55.100Z,20.52
2022-09-26T00:55:29.049Z,21.27
2022-09-26T00:58:01.168Z,18.63
2022-09-26T01:00:31.483Z,16.13
2022-09-26T01:03:00.353Z,17.50
2022-09-26T01:05:29.019Z,16.90
2022-09-26T01:07:58.329Z,16.95
2022-09-26T01:10:28.658Z,17.45
2022-09-26T01:12:58.214Z,17.20
2022-09-26T01:15:26.842Z,18.00
2022-09-26T01:17:57.913Z,18.13
2022-09-26T01:20:40.137Z,18.50
2022-09-26T01:23:42.858Z,17.60
2022-09-26T01:26:41.462Z,18.43
2022-09-26T01:29:52.077Z,18.90
2022-09-26T01:32:51.066Z,19.43
2022-09-26T01:35:33.399Z,18.77
2022-09-26T01:38:15.388Z,19.08
2022-09-26T01:40:57.483Z,18.38
2022-09-26T01:43:35.144Z,18.05
2022-09-26T01:46:14.487Z,17.33
2022-09-26T01:48:48.474Z,19.03
2022-09-26T01:51:23.598Z,18.33
2022-09-26T01:53:57.318Z,17.85
2022-09-26T01:56:29.510Z,18.50
2022-09-26T01:59:01.886Z,17.75
2022-09-26T02:01:36.684Z,17.50
2022-09-26T02:04:11.019Z,16.48
2022-09-26T02:06:48.194Z,17.50
2022-09-26T02:09:18.585Z,19.77
2022-09-26T02:11:51.966Z,17.03
2022-09-26T02:14:25.409Z,17.27
2022-09-26T02:16:59.311Z,17.43
2022-09-26T02:19:32.290Z,17.70
2022-09-26T02:22:02.723Z,19.97
2022-09-26T02:24:31.468Z,17.43
2022-09-26T02:27:02.071Z,17.10
2022-09-26T02:29:31.019Z,19.87
2022-09-26T02:32:04.086Z,19.93
2022-09-26T02:34:36.001Z,18.80
2022-09-26T02:37:08.271Z,18.70
2022-09-26T02:39:37.388Z,18.77
2022-09-26T02:42:19.043Z,18.93
2022-09-26T02:45:01.899Z,18.40
2022-09-26T02:47:57.672Z,19.47
2022-09-26T02:50:41.548Z,17.87
2022-09-26T02:53:26.583Z,18.23
2022-09-26T02:56:05.474Z,18.57
2022-09-26T02:58:42.443Z,18.07
2022-09-26T03:01:18.423Z,19.57
2022-09-26T03:03:54.429Z,18.27
2022-09-26T03:06:32.571Z,17.97
2022-09-26T03:09:02.537Z,18.97
2022-09-26T03:11:33.486Z,20.20
2022-09-26T03:14:03.683Z,19.43
2022-09-26T03:16:45.159Z,19.47
2022-09-26T03:19:22.659Z,19.90
2022-09-26T03:21:52.876Z,19.10
2022-09-26T03:24:21.519Z,19.47
2022-09-26T03:26:50.844Z,20.10
2022-09-26T03:29:20.449Z,18.13
2022-09-26T03:31:50.401Z,19.70
2022-09-26T03:34:20.582Z,19.33
2022-09-26T03:36:51.832Z,19.23
2022-09-26T03:39:20.306Z,19.27
2022-09-26T03:42:04.144Z,20.13
2022-09-26T03:44:33.337Z,18.67
2022-09-26T03:47:14.482Z,21.67
2022-09-26T03:49:45.360Z,18.53
2022-09-26T03:52:15.388Z,19.30
2022-09-26T03:54:45.875Z,20.37
2022-09-26T03:57:19.657Z,19.00
2022-09-26T04:00:07.599Z,19.23
2022-09-26T04:02:44.803Z,18.40
2022-09-26T04:05:26.939Z,18.90
2022-09-26T04:07:56.686Z,19.50
2022-09-26T04:10:25.086Z,19.30
2022-09-26T04:12:53.938Z,19.10
2022-09-26T04:15:22.183Z,19.00
2022-09-26T04:17:52.594Z,21.57
2022-09-26T04:20:21.487Z,21.43
2022-09-26T04:22:49.847Z,17.10
2022-09-26T04:25:20.099Z,18.37
2022-09-26T04:27:48.476Z,18.67
2022-09-26T04:30:17.176Z,18.93
2022-09-26T04:32:50.566Z,19.07
2022-09-26T04:35:34.005Z,19.73
2022-09-26T04:38:04.617Z,18.50
2022-09-26T04:40:39.569Z,18.57
2022-09-26T04:43:12.836Z,19.23
2022-09-26T04:45:42.216Z,21.50
2022-09-26T04:48:11.208Z,21.53
2022-09-26T04:50:45.944Z,20.00
2022-09-26T04:53:14.344Z,19.67
2022-09-26T04:56:18.037Z,19.00
2022-09-26T04:58:47.002Z,19.63
2022-09-26T05:01:18.460Z,19.40
2022-09-26T05:03:58.978Z,20.93
2022-09-26T05:06:29.453Z,19.93
2022-09-26T05:08:58.307Z,18.63
2022-09-26T05:11:43.943Z,19.97
2022-09-26T05:14:14.266Z,18.13
2022-09-26T05:16:43.216Z,18.73
2022-09-26T05:19:15.638Z,19.10
2022-09-26T05:22:04.469Z,18.00
2022-09-26T05:25:03.479Z,20.27
2022-09-26T05:27:33.456Z,20.40
2022-09-26T05:30:02.885Z,21.67
2022-09-26T05:32:31.855Z,19.27
2022-09-26T05:35:00.689Z,22.33
2022-09-26T05:37:32.111Z,21.13
2022-09-26T05:40:18.941Z,19.60
2022-09-26T05:42:55.658Z,20.33
2022-09-26T05:45:26.315Z,23.50
2022-09-26T05:47:54.892Z,24.97
2022-09-26T05:50:24.693Z,19.88
2022-09-26T05:52:53.186Z,20.53
2022-09-26T05:55:26.155Z,21.83
2022-09-26T05:58:18.764Z,20.03
2022-09-26T06:01:09.245Z,20.03
2022-09-26T06:03:39.508Z,20.87
2022-09-26T06:06:16.102Z,20.53
2022-09-26T06:08:45.381Z,19.40
2022-09-26T06:11:27.950Z,19.60
2022-09-26T06:14:00.531Z,18.80
2022-09-26T06:16:32.260Z,20.27
2022-09-26T06:19:02.539Z,20.23
2022-09-26T06:21:31.490Z,19.38
2022-09-26T06:24:12.833Z,19.17
2022-09-26T06:26:43.343Z,19.35
2022-09-26T06:29:15.479Z,18.85
2022-09-26T06:31:45.187Z,19.38
2022-09-26T06:34:16.107Z,18.13
2022-09-26T06:37:03.544Z,19.92
2022-09-26T06:39:35.809Z,18.30
2022-09-26T06:42:07.375Z,17.83
2022-09-26T06:45:12.607Z,17.80
2022-09-26T06:48:24.555Z,18.30
2022-09-26T06:51:14.334Z,17.13
2022-09-26T06:53:45.779Z,16.42
2022-09-26T06:56:18.203Z,16.58
2022-09-26T06:58:46.833Z,15.27
2022-09-26T07:01:18.613Z,15.48
2022-09-26T07:04:06.015Z,16.25
2022-09-26T07:06:38.780Z,14.07
2022-09-26T07:09:12.223Z,15.43
2022-09-26T07:14:42.218Z,14.45
2022-09-26T07:17:29.369Z,14.15
2022-09-26T07:20:13.459Z,13.52
2022-09-26T07:23:02.665Z,14.88
2022-09-26T07:25:33.501Z,12.88
2022-09-26T07:28:03.815Z,14.15
2022-09-26T07:30:44.891Z,14.13
2022-09-26T07:33:25.262Z,14.68
2022-09-26T07:35:59.816Z,14.40
2022-09-26T07:38:31.546Z,13.93
2022-09-26T07:41:01.167Z,12.95
2022-09-26T07:44:04.546Z,11.85
2022-09-26T07:46:39.010Z,11.32
2022-09-26T07:49:26.123Z,10.75
2022-09-26T07:52:12.731Z,13.63
2022-09-26T07:54:59.162Z,13.35
2022-09-26T07:57:51.153Z,11.43
2022-09-26T08:00:31.757Z,12.05
2022-09-26T08:03:26.186Z,10.23
2022-09-26T08:05:59.467Z,9.75
2022-09-26T08:08:28.122Z,10.85
2022-09-26T08:11:04.183Z,10.57
2022-09-26T08:14:08.788Z,11.32
2022-09-26T08:16:57.847Z,12.07
2022-09-26T08:19:26.733Z,11.60
2022-09-26T08:21:56.591Z,11.35
2022-09-26T08:24:25.112Z,11.35
2022-09-26T08:27:14.753Z,12.63
2022-09-26T08:29:49.269Z,11.75
2022-09-26T08:32:19.279Z,10.35
2022-09-26T08:34:49.209Z,10.82
2022-09-26T08:37:37.431Z,11.13
2022-09-26T08:40:33.816Z,11.40
2022-09-26T08:43:10.061Z,10.63
2022-09-26T08:46:32.088Z,11.45
2022-09-26T08:49:41.713Z,11.20
2022-09-26T08:52:24.587Z,9.88
2022-09-26T08:54:56.639Z,9.32
2022-09-26T08:57:35.407Z,10.63
2022-09-26T09:00:15.350Z,9.07
2022-09-26T09:02:57.090Z,10.43
2022-09-26T09:05:30.366Z,9.93
2022-09-26T09:08:02.711Z,9.68
2022-09-26T09:10:49.400Z,10.10
2022-09-26T09:13:42.361Z,9.68
2022-09-26T09:16:45.885Z,10.88
2022-09-26T09:19:34.299Z,9.90
2022-09-26T09:22:41.731Z,9.40
2022-09-26T09:25:22.702Z,9.93
2022-09-26T09:28:11.465Z,9.15
2022-09-26T09:30:44.852Z,9.15
2022-09-26T09:33:39.825Z,8.77
2022-09-26T09:36:22.042Z,7.20
2022-09-26T09:39:13.638Z,8.05
2022-09-26T09:41:54.727Z,9.23
2022-09-26T09:44:46.468Z,6.82
2022-09-26T09:47:16.980Z,8.45
2022-09-26T09:49:50.436Z,8.82
2022-09-26T09:52:40.959Z,8.30
2022-09-26T09:55:33.413Z,8.93
2022-09-26T09:58:24.716Z,9.63
2022-09-26T10:01:09.796Z,10.32
2022-09-26T10:03:43.586Z,8.48
2022-09-26T10:06:44.227Z,8.02
2022-09-26T10:09:35.539Z,7.43
2022-09-26T10:12:35.258Z,6.90
2022-09-26T10:15:26.376Z,8.30
2022-09-26T10:18:26.494Z,8.40
2022-09-26T10:21:13.040Z,6.97
2022-09-26T10:23:44.716Z,7.03
2022-09-26T10:26:31.285Z,6.20
2022-09-26T10:29:05.055Z,7.63
2022-09-26T10:31:42.049Z,6.25
2022-09-26T10:34:28.134Z,6.30
2022-09-26T10:36:57.516Z,5.25
2022-09-26T10:39:49.251Z,6.75
2022-09-26T10:42:20.238Z,6.05
2022-09-26T10:45:00.126Z,6.60
2022-09-26T10:48:07.831Z,5.53
2022-09-26T10:51:02.627Z,5.32
2022-09-26T10:53:54.257Z,3.25
2022-09-26T10:56:30.739Z,6.03
2022-09-26T10:59:04.352Z,5.70
2022-09-26T11:01:38.412Z,5.13
2022-09-26T11:04:39.265Z,5.25
2022-09-26T11:07:33.342Z,6.57
2022-09-26T11:10:41.435Z,6.32
2022-09-26T11:13:21.860Z,6.32
2022-09-26T11:16:02.005Z,6.10
2022-09-26T11:18:40.740Z,5.30
2022-09-26T11:21:28.408Z,5.03
2022-09-26T11:24:05.899Z,4.97
2022-09-26T11:26:43.619Z,5.28
2022-09-26T11:29:18.270Z,5.38
2022-09-26T11:32:00.277Z,5.85
2022-09-26T11:34:54.641Z,4.78
2022-09-26T11:37:36.504Z,5.80
2022-09-26T11:40:36.071Z,5.45
2022-09-26T11:43:16.218Z,5.20
2022-09-26T11:46:02.871Z,5.25
2022-09-26T11:49:28.432Z,6.13
2022-09-26T11:52:36.999Z,5.95
2022-09-26T11:55:17.647Z,6.05
2022-09-26T11:57:58.235Z,5.80
2022-09-26T12:00:32.087Z,4.55
2022-09-26T12:03:26.074Z,3.70
2022-09-26T12:06:00.483Z,5.20
2022-09-26T12:08:44.059Z,8.15
2022-09-26T12:11:24.537Z,6.07
2022-09-26T12:14:01.286Z,5.88
2022-09-26T12:16:36.644Z,6.38
2022-09-26T12:19:16.762Z,7.95
2022-09-26T12:22:13.379Z,7.38
2022-09-26T12:24:49.422Z,7.47
2022-09-26T12:27:25.671Z,7.22
2022-09-26T12:30:04.262Z,9.77
2022-09-26T12:32:52.456Z,6.78
2022-09-26T12:35:45.271Z,8.85
2022-09-26T12:38:39.000Z,8.65
2022-09-26T12:41:38.221Z,9.40
2022-09-26T12:44:22.731Z,9.65
2022-09-26T12:47:15.762Z,9.90
2022-09-26T12:50:01.658Z,9.27
2022-09-26T12:52:50.536Z,8.80
2022-09-26T12:55:31.579Z,13.73
2022-09-26T12:58:11.314Z,11.88
2022-09-26T13:00:46.279Z,11.15
2022-09-26T13:03:50.248Z,10.75
2022-09-26T13:07:07.646Z,9.55
2022-09-26T13:09:56.577Z,8.85
2022-09-26T13:12:40.597Z,9.10
2022-09-26T13:15:21.582Z,9.48
2022-09-26T13:17:56.728Z,10.95
2022-09-26T13:20:33.134Z,8.63
2022-09-26T13:23:09.754Z,7.93
2022-09-26T13:25:48.746Z,7.78
2022-09-26T13:28:21.615Z,7.03
2022-09-26T13:30:54.671Z,6.60
2022-09-26T13:33:29.386Z,6.15
2022-09-26T13:36:01.378Z,6.55
2022-09-26T13:38:39.928Z,5.13
2022-09-26T13:41:22.212Z,4.82
2022-09-26T13:44:03.448Z,5.28
2022-09-26T13:46:39.997Z,6.75
2022-09-26T13:49:44.030Z,6.22
2022-09-26T13:52:25.120Z,5.80
2022-09-26T13:55:00.450Z,6.00
2022-09-26T13:57:40.119Z,6.53
2022-09-26T14:00:41.026Z,3.78
2022-09-26T14:03:39.976Z,3.90
2022-09-26T14:06:10.662Z,5.47
2022-09-26T14:09:28.650Z,4.15
2022-09-26T14:12:32.407Z,5.10
2022-09-26T14:15:24.116Z,3.85
2022-09-26T14:18:18.859Z,5.00
2022-09-26T14:21:06.842Z,4.50
2022-09-26T14:23:43.027Z,3.42
2022-09-26T14:26:14.234Z,3.40
2022-09-26T14:28:51.967Z,3.60
2022-09-26T14:31:57.080Z,3.40
2022-09-26T14:34:30.484Z,2.50
2022-09-26T14:37:03.440Z,3.10
2022-09-26T14:39:39.538Z,4.40
2022-09-26T14:42:11.135Z,3.92
2022-09-26T14:44:46.602Z,3.63
2022-09-26T14:47:17.241Z,3.55
2022-09-26T14:49:55.135Z,3.03
2022-09-26T14:52:25.260Z,3.85
2022-09-26T14:55:01.300Z,3.33
2022-09-26T14:57:33.870Z,4.32
2022-09-26T15:00:03.486Z,3.63
2022-09-26T15:02:39.381Z,3.38
2022-09-26T15:05:23.422Z,3.05
2022-09-26T15:07:54.958Z,4.50
2022-09-26T15:10:35.340Z,4.15
2022-09-26T15:13:10.676Z,6.75
2022-09-26T15:15:51.411Z,6.18
2022-09-26T15:18:31.442Z,3.80
2022-09-26T15:21:04.834Z,3.58
2022-09-26T15:23:45.350Z,3.38
2022-09-26T15:26:17.652Z,3.67
2022-09-26T15:28:48.592Z,3.20
2022-09-26T15:31:23.558Z,2.50
2022-09-26T15:33:55.387Z,3.90
2022-09-26T15:36:24.109Z,2.88
2022-09-26T15:38:52.759Z,3.88
2022-09-26T15:41:36.239Z,2.80
2022-09-26T15:44:07.890Z,3.85
2022-09-26T15:46:36.479Z,3.33
2022-09-26T15:49:14.413Z,2.95
2022-09-26T15:51:45.221Z,3.58
2022-09-26T15:54:22.851Z,3.28
2022-09-26T15:56:55.555Z,4.03
2022-09-26T15:59:28.764Z,3.08
2022-09-26T16:01:58.363Z,3.40
2022-09-26T16:04:28.104Z,2.63
2022-09-26T16:07:02.077Z,4.90
2022-09-26T16:09:33.312Z,5.38
2022-09-26T16:12:07.638Z,6.70
2022-09-26T16:14:41.634Z,3.60
2022-09-26T16:17:21.498Z,3.45
2022-09-26T16:19:53.033Z,2.95
2022-09-26T16:22:40.432Z,3.00
2022-09-26T16:25:32.575Z,4.35
2022-09-26T16:28:24.381Z,3.20
2022-09-26T16:31:10.532Z,4.28
2022-09-26T16:33:40.440Z,5.53
2022-09-26T16:36:18.564Z,5.63
2022-09-26T16:38:56.088Z,6.03
2022-09-26T16:41:56.170Z,5.10
2022-09-26T16:44:29.006Z,6.47
2022-09-26T16:47:03.391Z,6.60
2022-09-26T16:49:45.992Z,6.70
2022-09-26T16:52:29.163Z,6.78
2022-09-26T16:54:59.011Z,4.55
2022-09-26T16:57:30.482Z,4.65
2022-09-26T17:00:23.494Z,4.43
2022-09-26T17:02:52.443Z,6.05
2022-09-26T17:05:22.736Z,6.40
2022-09-26T17:07:51.450Z,6.82
2022-09-26T17:10:24.024Z,14.00
2022-09-26T17:12:53.241Z,12.05
2022-09-26T17:15:29.108Z,10.30
2022-09-26T17:17:58.613Z,8.35
2022-09-26T17:20:28.668Z,6.97
2022-09-26T17:22:56.923Z,4.78
2022-09-26T17:25:25.981Z,4.20
2022-09-26T17:27:59.638Z,6.30
2022-09-26T17:30:32.409Z,4.50
2022-09-26T17:33:00.985Z,5.20
2022-09-26T17:35:32.371Z,4.22
2022-09-26T17:38:01.289Z,3.60
2022-09-26T17:40:33.029Z,4.82
2022-09-26T17:43:02.101Z,4.10
2022-09-26T17:45:35.139Z,4.80
2022-09-26T17:48:06.533Z,5.05
2022-09-26T17:50:36.747Z,5.28
2022-09-26T17:53:07.785Z,4.63
2022-09-26T17:55:36.640Z,5.00
2022-09-26T17:58:10.251Z,6.25
2022-09-26T18:00:41.164Z,5.72
2022-09-26T18:03:19.287Z,7.82
2022-09-26T18:05:48.375Z,6.65
2022-09-26T18:08:21.984Z,5.10
2022-09-26T18:10:55.093Z,5.20
2022-09-26T18:13:26.620Z,8.48
2022-09-26T18:15:57.643Z,6.53
2022-09-26T18:18:29.528Z,5.00
2022-09-26T18:20:58.894Z,4.57
2022-09-26T18:23:29.775Z,4.93
2022-09-26T18:26:00.221Z,5.70
2022-09-26T18:28:29.997Z,4.63
2022-09-26T18:31:00.820Z,4.88
2022-09-26T18:33:35.779Z,5.07
2022-09-26T18:36:06.527Z,4.47
2022-09-26T18:38:35.496Z,4.90
2022-09-26T18:41:07.002Z,4.40
2022-09-26T18:43:41.181Z,5.30
2022-09-26T18:46:16.797Z,6.03
2022-09-26T18:48:46.518Z,5.20
2022-09-26T18:51:15.182Z,10.07
2022-09-26T18:53:43.511Z,8.63
2022-09-26T18:56:30.083Z,7.07
2022-09-26T18:58:58.785Z,16.90
2022-09-26T19:01:31.008Z,8.85
2022-09-26T19:04:01.629Z,8.05
2022-09-26T19:06:33.619Z,7.82
2022-09-26T19:09:04.753Z,7.40
2022-09-26T19:11:35.257Z,9.77
2022-09-26T19:14:13.353Z,8.87
2022-09-26T19:16:43.684Z,10.27
2022-09-26T19:19:12.306Z,12.77
2022-09-26T19:21:42.981Z,12.73
2022-09-26T19:24:20.682Z,13.63
2022-09-26T19:26:52.562Z,14.43
2022-09-26T19:29:28.642Z,13.25
2022-09-26T19:31:58.712Z,13.90
2022-09-26T19:34:31.858Z,10.98
2022-09-26T19:37:03.182Z,10.60
2022-09-26T19:39:32.503Z,11.20
2022-09-26T19:42:01.713Z,9.37
2022-09-26T19:44:30.179Z,10.27
2022-09-26T19:47:00.341Z,9.73
2022-09-26T19:49:32.017Z,9.07
2022-09-26T19:52:02.495Z,8.60
2022-09-26T19:54:31.006Z,10.03
2022-09-26T19:56:59.446Z,7.50
2022-09-26T19:59:27.973Z,8.93
2022-09-26T20:01:56.447Z,9.40
2022-09-26T20:04:29.489Z,9.13
2022-09-26T20:06:58.578Z,8.43
2022-09-26T20:09:27.240Z,8.87
2022-09-26T20:11:55.905Z,8.67
2022-09-26T20:14:24.635Z,9.60
2022-09-26T20:16:55.707Z,10.13
2022-09-26T20:19:37.552Z,10.23
2022-09-26T20:22:08.344Z,9.77
2022-09-26T20:24:39.735Z,11.30
2022-09-26T20:27:15.937Z,13.33
2022-09-26T20:30:13.336Z,16.87
2022-09-26T20:32:42.775Z,21.63
2022-09-26T20:35:15.133Z,19.97
2022-09-26T20:37:44.933Z,16.77
2022-09-26T20:40:18.365Z,13.77
2022-09-26T20:42:49.641Z,13.13
2022-09-26T20:45:21.849Z,11.53
2022-09-26T20:47:50.737Z,13.87
2022-09-26T20:50:21.675Z,13.57
2022-09-26T20:52:50.532Z,13.20
2022-09-26T20:55:20.223Z,20.63
2022-09-26T20:57:48.718Z,16.33
2022-09-26T21:00:17.869Z,22.50
2022-09-26T21:02:47.804Z,20.53
2022-09-26T21:05:18.034Z,15.50
2022-09-26T21:07:47.920Z,14.50
2022-09-26T21:10:24.979Z,16.50
2022-09-26T21:12:54.076Z,15.57
2022-09-26T21:15:23.978Z,16.70
2022-09-26T21:17:53.659Z,17.17
2022-09-26T21:20:25.739Z,13.47
2022-09-26T21:23:11.458Z,16.00
2022-09-26T21:25:39.967Z,16.63
2022-09-26T21:28:33.047Z,14.47
2022-09-26T21:31:05.869Z,14.33
2022-09-26T21:33:34.645Z,14.97
2022-09-26T21:36:03.897Z,16.03
2022-09-26T21:38:33.823Z,19.00
2022-09-26T21:41:03.690Z,24.97
2022-09-26T21:43:36.742Z,20.63
2022-09-26T21:46:06.892Z,16.50
2022-09-26T21:48:35.478Z,16.50
2022-09-26T21:51:06.911Z,15.57
2022-09-26T21:53:45.846Z,15.57
2022-09-26T21:56:17.864Z,15.93
2022-09-26T21:58:47.231Z,16.07
2022-09-26T22:01:15.790Z,16.43
2022-09-26T22:03:44.247Z,16.13
2022-09-26T22:06:12.870Z,16.07
2022-09-26T22:08:43.405Z,16.30
2022-09-26T22:11:14.090Z,19.50
2022-09-26T22:13:42.705Z,16.63
2022-09-26T22:16:13.358Z,16.80
2022-09-26T22:18:42.583Z,17.30
2022-09-26T22:21:12.671Z,16.90
2022-09-26T22:23:42.794Z,15.60
2022-09-26T22:26:11.629Z,15.77
2022-09-26T22:28:40.252Z,14.57
2022-09-26T22:31:08.673Z,15.83
2022-09-26T22:33:37.580Z,16.40
2022-09-26T22:36:06.832Z,15.97
2022-09-26T22:38:35.987Z,14.77
2022-09-26T22:41:08.001Z,15.40
2022-09-26T22:43:36.956Z,15.77
2022-09-26T22:46:07.832Z,16.27
2022-09-26T22:48:38.247Z,17.30
2022-09-26T22:51:07.485Z,16.87
2022-09-26T22:53:37.732Z,17.17
2022-09-26T22:56:10.241Z,16.20
2022-09-26T22:58:41.746Z,17.20
2022-09-26T23:01:11.865Z,17.57
2022-09-26T23:03:41.094Z,18.17
2022-09-26T23:06:10.557Z,18.57
2022-09-26T23:08:39.294Z,16.53
2022-09-26T23:11:11.511Z,15.83
2022-09-26T23:13:40.255Z,15.70
2022-09-26T23:16:11.352Z,14.93
2022-09-26T23:18:41.467Z,14.97
2022-09-26T23:21:11.461Z,15.50
2022-09-26T23:23:42.546Z,15.77
2022-09-26T23:26:17.401Z,15.93
2022-09-26T23:28:45.721Z,15.70
2022-09-26T23:31:14.970Z,16.37
2022-09-26T23:33:44.014Z,14.07
2022-09-26T23:36:12.983Z,15.30
2022-09-26T23:38:42.631Z,15.40
2022-09-26T23:41:12.193Z,15.33
2022-09-26T23:43:42.301Z,15.33
2022-09-26T23:46:13.200Z,15.33
2022-09-26T23:48:41.661Z,14.80
2022-09-26T23:51:10.426Z,15.20
2022-09-26T23:53:39.000Z,14.43
2022-09-26T23:56:09.913Z,13.47
2022-09-26T23:58:38.725Z,13.93
